sensor_id;sensor_type;location;lat;lon;timestamp;temperature;humidity
13205;DHT22;6667;52.634;9.226;2023-03-04T00:00:03;4.90;99.90
13205;DHT22;6667;52.634;9.226;2023-03-04T00:02:30;4.90;99.90
13205;DHT22;6667;52.634;9.226;2023-03-04T00:04:57;4.90;99.90
13205;DHT22;6667;52.634;9.226;2023-03-04T00:07:25;5.00;99.90
13205;DHT22;6667;52.634;9.226;2023-03-04T00:09:51;5.00;99.90
13205;DHT22;6667;52.634;9.226;2023-03-04T00:12:18;5.00;99.90
13205;DHT22;6667;52.634;9.226;2023-03-04T00:14:44;5.00;99.90
13205;DHT22;6667;52.634;9.226;2023-03-04T00:17:11;5.10;99.90
13205;DHT22;6667;52.634;9.226;2023-03-04T00:19:38;5.10;99.90
13205;DHT22;6667;52.634;9.226;2023-03-04T00:22:04;5.10;99.90
13205;DHT22;6667;52.634;9.226;2023-03-04T00:24:32;5.10;99.90
13205;DHT22;6667;52.634;9.226;2023-03-04T00:26:59;5.10;99.90
13205;DHT22;6667;52.634;9.226;2023-03-04T00:29:26;5.10;99.90
13205;DHT22;6667;52.634;9.226;2023-03-04T00:31:53;5.10;99.90
13205;DHT22;6667;52.634;9.226;2023-03-04T00:34:20;5.10;99.90
13205;DHT22;6667;52.634;9.226;2023-03-04T00:36:46;5.10;99.90
13205;DHT22;6667;52.634;9.226;2023-03-04T00:39:14;5.10;99.90
13205;DHT22;6667;52.634;9.226;2023-03-04T00:41:42;5.10;99.90
13205;DHT22;6667;52.634;9.226;2023-03-04T00:44:09;5.10;99.90
13205;DHT22;6667;52.634;9.226;2023-03-04T00:46:35;5.10;99.90
13205;DHT22;6667;52.634;9.226;2023-03-04T00:49:02;5.10;99.90
13205;DHT22;6667;52.634;9.226;2023-03-04T00:51:28;5.10;99.90
13205;DHT22;6667;52.634;9.226;2023-03-04T00:53:55;5.10;99.90
13205;DHT22;6667;52.634;9.226;2023-03-04T00:56:22;5.10;99.90
13205;DHT22;6667;52.634;9.226;2023-03-04T00:58:50;5.10;99.90
13205;DHT22;6667;52.634;9.226;2023-03-04T01:01:16;5.10;99.90
13205;DHT22;6667;52.634;9.226;2023-03-04T01:03:43;5.10;99.90
13205;DHT22;6667;52.634;9.226;2023-03-04T01:06:09;5.10;99.90
13205;DHT22;6667;52.634;9.226;2023-03-04T01:08:37;5.20;99.90
13205;DHT22;6667;52.634;9.226;2023-03-04T01:11:04;5.10;99.90
13205;DHT22;6667;52.634;9.226;2023-03-04T01:13:31;5.10;99.90
13205;DHT22;6667;52.634;9.226;2023-03-04T01:15:59;5.10;99.90
13205;DHT22;6667;52.634;9.226;2023-03-04T01:18:25;5.10;99.90
13205;DHT22;6667;52.634;9.226;2023-03-04T01:20:52;5.20;99.90
13205;DHT22;6667;52.634;9.226;2023-03-04T01:23:19;5.20;99.90
13205;DHT22;6667;52.634;9.226;2023-03-04T01:25:45;5.20;99.90
13205;DHT22;6667;52.634;9.226;2023-03-04T01:28:12;5.20;99.90
13205;DHT22;6667;52.634;9.226;2023-03-04T01:30:38;5.10;99.90
13205;DHT22;6667;52.634;9.226;2023-03-04T01:33:06;5.10;99.90
13205;DHT22;6667;52.634;9.226;2023-03-04T01:35:33;5.20;99.90
13205;DHT22;6667;52.634;9.226;2023-03-04T01:38:00;5.10;99.90
13205;DHT22;6667;52.634;9.226;2023-03-04T01:40:26;5.20;99.90
13205;DHT22;6667;52.634;9.226;2023-03-04T01:42:53;5.20;99.90
13205;DHT22;6667;52.634;9.226;2023-03-04T01:45:20;5.20;99.90
13205;DHT22;6667;52.634;9.226;2023-03-04T01:47:48;5.20;99.90
13205;DHT22;6667;52.634;9.226;2023-03-04T01:50:20;5.20;99.90
13205;DHT22;6667;52.634;9.226;2023-03-04T01:52:47;5.20;99.90
13205;DHT22;6667;52.634;9.226;2023-03-04T01:55:16;5.20;99.90
13205;DHT22;6667;52.634;9.226;2023-03-04T01:57:43;5.20;99.90
13205;DHT22;6667;52.634;9.226;2023-03-04T02:00:19;5.30;99.90
13205;DHT22;6667;52.634;9.226;2023-03-04T02:02:47;5.20;99.90
13205;DHT22;6667;52.634;9.226;2023-03-04T02:05:15;5.30;99.90
13205;DHT22;6667;52.634;9.226;2023-03-04T02:07:43;5.40;99.90
13205;DHT22;6667;52.634;9.226;2023-03-04T02:10:11;5.30;99.90
13205;DHT22;6667;52.634;9.226;2023-03-04T02:12:38;5.30;99.90
13205;DHT22;6667;52.634;9.226;2023-03-04T02:15:06;5.30;99.90
13205;DHT22;6667;52.634;9.226;2023-03-04T02:17:33;5.40;99.90
13205;DHT22;6667;52.634;9.226;2023-03-04T02:20:08;5.30;99.90
13205;DHT22;6667;52.634;9.226;2023-03-04T02:22:41;5.40;99.90
13205;DHT22;6667;52.634;9.226;2023-03-04T02:25:13;5.40;99.90
13205;DHT22;6667;52.634;9.226;2023-03-04T02:27:44;5.40;99.90
13205;DHT22;6667;52.634;9.226;2023-03-04T02:30:12;5.40;99.90
13205;DHT22;6667;52.634;9.226;2023-03-04T02:32:39;5.40;99.90
13205;DHT22;6667;52.634;9.226;2023-03-04T02:35:08;5.40;99.90
13205;DHT22;6667;52.634;9.226;2023-03-04T02:37:39;5.40;99.90
13205;DHT22;6667;52.634;9.226;2023-03-04T02:40:09;5.40;99.90
13205;DHT22;6667;52.634;9.226;2023-03-04T02:42:38;5.50;99.90
13205;DHT22;6667;52.634;9.226;2023-03-04T02:45:31;5.40;99.90
13205;DHT22;6667;52.634;9.226;2023-03-04T02:48:00;5.40;99.90
13205;DHT22;6667;52.634;9.226;2023-03-04T02:50:29;5.40;99.90
13205;DHT22;6667;52.634;9.226;2023-03-04T02:52:56;5.40;99.90
13205;DHT22;6667;52.634;9.226;2023-03-04T02:55:23;5.40;99.90
13205;DHT22;6667;52.634;9.226;2023-03-04T02:57:50;5.40;99.90
13205;DHT22;6667;52.634;9.226;2023-03-04T03:00:17;5.40;99.90
13205;DHT22;6667;52.634;9.226;2023-03-04T03:02:44;5.40;99.90
13205;DHT22;6667;52.634;9.226;2023-03-04T03:05:12;5.40;99.90
13205;DHT22;6667;52.634;9.226;2023-03-04T03:07:39;5.40;99.90
13205;DHT22;6667;52.634;9.226;2023-03-04T03:10:06;5.40;99.90
13205;DHT22;6667;52.634;9.226;2023-03-04T03:12:33;5.40;99.90
13205;DHT22;6667;52.634;9.226;2023-03-04T03:15:00;5.40;99.90
13205;DHT22;6667;52.634;9.226;2023-03-04T03:17:26;5.40;99.90
13205;DHT22;6667;52.634;9.226;2023-03-04T03:19:54;5.40;99.90
13205;DHT22;6667;52.634;9.226;2023-03-04T03:22:21;5.40;99.90
13205;DHT22;6667;52.634;9.226;2023-03-04T03:24:48;5.30;99.90
13205;DHT22;6667;52.634;9.226;2023-03-04T03:27:14;5.30;99.90
13205;DHT22;6667;52.634;9.226;2023-03-04T03:29:41;5.30;99.90
13205;DHT22;6667;52.634;9.226;2023-03-04T03:32:08;5.30;99.90
13205;DHT22;6667;52.634;9.226;2023-03-04T03:34:34;5.30;99.90
13205;DHT22;6667;52.634;9.226;2023-03-04T03:37:02;5.30;99.90
13205;DHT22;6667;52.634;9.226;2023-03-04T03:39:29;5.20;99.90
13205;DHT22;6667;52.634;9.226;2023-03-04T03:41:55;5.20;99.90
13205;DHT22;6667;52.634;9.226;2023-03-04T03:44:22;5.20;99.90
13205;DHT22;6667;52.634;9.226;2023-03-04T03:46:49;5.20;99.90
13205;DHT22;6667;52.634;9.226;2023-03-04T03:49:15;5.10;99.90
13205;DHT22;6667;52.634;9.226;2023-03-04T03:51:42;5.10;99.90
13205;DHT22;6667;52.634;9.226;2023-03-04T03:54:10;5.10;99.90
13205;DHT22;6667;52.634;9.226;2023-03-04T03:56:36;5.10;99.90
13205;DHT22;6667;52.634;9.226;2023-03-04T03:59:03;5.10;99.90
13205;DHT22;6667;52.634;9.226;2023-03-04T04:01:30;5.10;99.90
13205;DHT22;6667;52.634;9.226;2023-03-04T04:03:58;5.10;99.90
13205;DHT22;6667;52.634;9.226;2023-03-04T04:06:24;5.10;99.90
13205;DHT22;6667;52.634;9.226;2023-03-04T04:08:51;5.00;99.90
13205;DHT22;6667;52.634;9.226;2023-03-04T04:11:19;5.00;99.90
13205;DHT22;6667;52.634;9.226;2023-03-04T04:13:46;5.00;99.90
13205;DHT22;6667;52.634;9.226;2023-03-04T04:16:12;5.00;99.90
13205;DHT22;6667;52.634;9.226;2023-03-04T04:18:39;5.00;99.90
13205;DHT22;6667;52.634;9.226;2023-03-04T04:21:06;5.00;99.90
13205;DHT22;6667;52.634;9.226;2023-03-04T04:23:32;5.00;99.90
13205;DHT22;6667;52.634;9.226;2023-03-04T04:25:59;5.00;99.90
13205;DHT22;6667;52.634;9.226;2023-03-04T04:28:27;5.00;99.90
13205;DHT22;6667;52.634;9.226;2023-03-04T04:30:53;5.00;99.90
13205;DHT22;6667;52.634;9.226;2023-03-04T04:33:20;5.00;99.90
13205;DHT22;6667;52.634;9.226;2023-03-04T04:35:47;4.90;99.90
13205;DHT22;6667;52.634;9.226;2023-03-04T04:38:13;4.90;99.90
13205;DHT22;6667;52.634;9.226;2023-03-04T04:40:40;4.90;99.90
13205;DHT22;6667;52.634;9.226;2023-03-04T04:43:07;4.90;99.90
13205;DHT22;6667;52.634;9.226;2023-03-04T04:45:35;4.90;99.90
13205;DHT22;6667;52.634;9.226;2023-03-04T04:48:02;4.90;99.90
13205;DHT22;6667;52.634;9.226;2023-03-04T04:50:28;4.90;99.90
13205;DHT22;6667;52.634;9.226;2023-03-04T04:52:55;4.90;99.90
13205;DHT22;6667;52.634;9.226;2023-03-04T04:55:21;4.90;99.90
13205;DHT22;6667;52.634;9.226;2023-03-04T04:57:48;4.90;99.90
13205;DHT22;6667;52.634;9.226;2023-03-04T05:00:16;4.90;99.90
13205;DHT22;6667;52.634;9.226;2023-03-04T05:02:44;4.90;99.90
13205;DHT22;6667;52.634;9.226;2023-03-04T05:05:11;4.90;99.90
13205;DHT22;6667;52.634;9.226;2023-03-04T05:07:38;4.80;99.90
13205;DHT22;6667;52.634;9.226;2023-03-04T05:10:05;4.80;99.90
13205;DHT22;6667;52.634;9.226;2023-03-04T05:12:31;4.80;99.90
13205;DHT22;6667;52.634;9.226;2023-03-04T05:14:58;4.80;99.90
13205;DHT22;6667;52.634;9.226;2023-03-04T05:17:25;4.70;99.90
13205;DHT22;6667;52.634;9.226;2023-03-04T05:19:52;4.70;99.90
13205;DHT22;6667;52.634;9.226;2023-03-04T05:22:19;4.70;99.90
13205;DHT22;6667;52.634;9.226;2023-03-04T05:24:46;4.70;99.90
13205;DHT22;6667;52.634;9.226;2023-03-04T05:27:12;4.60;99.90
13205;DHT22;6667;52.634;9.226;2023-03-04T05:29:39;4.60;99.90
13205;DHT22;6667;52.634;9.226;2023-03-04T05:32:07;4.60;99.90
13205;DHT22;6667;52.634;9.226;2023-03-04T05:34:33;4.60;99.90
13205;DHT22;6667;52.634;9.226;2023-03-04T05:37:01;4.60;99.90
13205;DHT22;6667;52.634;9.226;2023-03-04T05:39:28;4.60;99.90
13205;DHT22;6667;52.634;9.226;2023-03-04T05:41:54;4.60;99.90
13205;DHT22;6667;52.634;9.226;2023-03-04T05:44:21;4.60;99.90
13205;DHT22;6667;52.634;9.226;2023-03-04T05:46:47;4.60;99.90
13205;DHT22;6667;52.634;9.226;2023-03-04T05:49:14;4.60;99.90
13205;DHT22;6667;52.634;9.226;2023-03-04T05:51:41;4.50;99.90
13205;DHT22;6667;52.634;9.226;2023-03-04T05:54:09;4.50;99.90
13205;DHT22;6667;52.634;9.226;2023-03-04T05:56:35;4.50;99.90
13205;DHT22;6667;52.634;9.226;2023-03-04T05:59:02;4.50;99.90
13205;DHT22;6667;52.634;9.226;2023-03-04T06:01:28;4.50;99.90
13205;DHT22;6667;52.634;9.226;2023-03-04T06:03:55;4.50;99.90
13205;DHT22;6667;52.634;9.226;2023-03-04T06:06:22;4.50;99.90
13205;DHT22;6667;52.634;9.226;2023-03-04T06:08:49;4.50;99.90
13205;DHT22;6667;52.634;9.226;2023-03-04T06:11:16;4.50;99.90
13205;DHT22;6667;52.634;9.226;2023-03-04T06:13:43;4.50;99.90
13205;DHT22;6667;52.634;9.226;2023-03-04T06:16:10;4.50;99.90
13205;DHT22;6667;52.634;9.226;2023-03-04T06:18:37;4.50;99.90
13205;DHT22;6667;52.634;9.226;2023-03-04T06:21:04;4.60;99.90
13205;DHT22;6667;52.634;9.226;2023-03-04T06:23:31;4.60;99.90
13205;DHT22;6667;52.634;9.226;2023-03-04T06:25:58;4.60;99.90
13205;DHT22;6667;52.634;9.226;2023-03-04T06:28:27;4.60;99.90
13205;DHT22;6667;52.634;9.226;2023-03-04T06:30:55;4.60;99.90
13205;DHT22;6667;52.634;9.226;2023-03-04T06:33:22;4.60;99.90
13205;DHT22;6667;52.634;9.226;2023-03-04T06:35:53;4.60;99.90
13205;DHT22;6667;52.634;9.226;2023-03-04T06:38:20;4.60;99.90
13205;DHT22;6667;52.634;9.226;2023-03-04T06:40:46;4.60;99.90
13205;DHT22;6667;52.634;9.226;2023-03-04T06:43:13;4.60;99.90
13205;DHT22;6667;52.634;9.226;2023-03-04T06:45:41;4.60;99.90
13205;DHT22;6667;52.634;9.226;2023-03-04T06:48:08;4.60;99.90
13205;DHT22;6667;52.634;9.226;2023-03-04T06:50:34;4.60;99.90
13205;DHT22;6667;52.634;9.226;2023-03-04T06:53:01;4.60;99.90
13205;DHT22;6667;52.634;9.226;2023-03-04T06:55:28;4.60;99.90
13205;DHT22;6667;52.634;9.226;2023-03-04T06:57:54;4.70;99.90
13205;DHT22;6667;52.634;9.226;2023-03-04T07:00:21;4.70;99.90
13205;DHT22;6667;52.634;9.226;2023-03-04T07:02:50;4.80;99.90
13205;DHT22;6667;52.634;9.226;2023-03-04T07:05:17;4.80;99.90
13205;DHT22;6667;52.634;9.226;2023-03-04T07:07:43;4.80;99.90
13205;DHT22;6667;52.634;9.226;2023-03-04T07:10:10;4.80;99.90
13205;DHT22;6667;52.634;9.226;2023-03-04T07:12:37;4.90;99.90
13205;DHT22;6667;52.634;9.226;2023-03-04T07:15:05;4.90;99.90
13205;DHT22;6667;52.634;9.226;2023-03-04T07:17:31;4.90;99.90
13205;DHT22;6667;52.634;9.226;2023-03-04T07:20:00;4.90;99.90
13205;DHT22;6667;52.634;9.226;2023-03-04T07:22:27;5.00;99.90
13205;DHT22;6667;52.634;9.226;2023-03-04T07:24:53;5.00;99.90
13205;DHT22;6667;52.634;9.226;2023-03-04T07:27:20;5.00;99.90
13205;DHT22;6667;52.634;9.226;2023-03-04T07:29:47;5.00;99.90
13205;DHT22;6667;52.634;9.226;2023-03-04T07:32:13;5.00;99.90
13205;DHT22;6667;52.634;9.226;2023-03-04T07:34:40;5.00;99.90
13205;DHT22;6667;52.634;9.226;2023-03-04T07:37:08;5.00;99.90
13205;DHT22;6667;52.634;9.226;2023-03-04T07:39:34;5.00;99.90
13205;DHT22;6667;52.634;9.226;2023-03-04T07:42:01;5.00;99.90
13205;DHT22;6667;52.634;9.226;2023-03-04T07:44:28;5.10;99.90
13205;DHT22;6667;52.634;9.226;2023-03-04T07:46:54;5.10;99.90
13205;DHT22;6667;52.634;9.226;2023-03-04T07:49:21;5.10;99.90
13205;DHT22;6667;52.634;9.226;2023-03-04T07:51:47;5.10;99.90
13205;DHT22;6667;52.634;9.226;2023-03-04T07:54:15;5.10;99.90
13205;DHT22;6667;52.634;9.226;2023-03-04T07:56:44;5.10;99.90
13205;DHT22;6667;52.634;9.226;2023-03-04T07:59:11;5.20;99.90
13205;DHT22;6667;52.634;9.226;2023-03-04T08:01:37;5.20;99.90
13205;DHT22;6667;52.634;9.226;2023-03-04T08:04:05;5.30;99.90
13205;DHT22;6667;52.634;9.226;2023-03-04T08:06:33;5.30;99.90
13205;DHT22;6667;52.634;9.226;2023-03-04T08:09:01;5.30;99.90
13205;DHT22;6667;52.634;9.226;2023-03-04T08:11:30;5.30;99.90
13205;DHT22;6667;52.634;9.226;2023-03-04T08:13:57;5.30;99.90
13205;DHT22;6667;52.634;9.226;2023-03-04T08:16:25;5.30;99.90
13205;DHT22;6667;52.634;9.226;2023-03-04T08:18:53;5.40;99.90
13205;DHT22;6667;52.634;9.226;2023-03-04T08:21:21;5.40;99.90
13205;DHT22;6667;52.634;9.226;2023-03-04T08:23:48;5.50;99.90
13205;DHT22;6667;52.634;9.226;2023-03-04T08:26:18;5.60;99.90
13205;DHT22;6667;52.634;9.226;2023-03-04T08:28:46;5.70;99.90
13205;DHT22;6667;52.634;9.226;2023-03-04T08:31:14;6.00;99.90
13205;DHT22;6667;52.634;9.226;2023-03-04T08:33:41;6.10;99.90
13205;DHT22;6667;52.634;9.226;2023-03-04T08:36:09;6.10;99.90
13205;DHT22;6667;52.634;9.226;2023-03-04T08:38:36;6.10;99.90
13205;DHT22;6667;52.634;9.226;2023-03-04T08:41:03;6.10;99.90
13205;DHT22;6667;52.634;9.226;2023-03-04T08:43:30;6.10;99.90
13205;DHT22;6667;52.634;9.226;2023-03-04T08:45:58;6.10;99.90
13205;DHT22;6667;52.634;9.226;2023-03-04T08:48:25;6.10;99.90
13205;DHT22;6667;52.634;9.226;2023-03-04T08:50:52;6.30;99.90
13205;DHT22;6667;52.634;9.226;2023-03-04T08:53:20;6.30;99.90
13205;DHT22;6667;52.634;9.226;2023-03-04T08:55:47;6.40;99.90
13205;DHT22;6667;52.634;9.226;2023-03-04T08:58:14;6.40;99.90
13205;DHT22;6667;52.634;9.226;2023-03-04T09:00:42;6.40;99.90
13205;DHT22;6667;52.634;9.226;2023-03-04T09:03:11;6.40;99.90
13205;DHT22;6667;52.634;9.226;2023-03-04T09:05:37;6.40;99.90
13205;DHT22;6667;52.634;9.226;2023-03-04T09:08:04;6.30;99.90
13205;DHT22;6667;52.634;9.226;2023-03-04T09:10:31;6.20;99.90
13205;DHT22;6667;52.634;9.226;2023-03-04T09:12:58;6.20;99.90
13205;DHT22;6667;52.634;9.226;2023-03-04T09:15:26;6.10;99.90
13205;DHT22;6667;52.634;9.226;2023-03-04T09:17:53;6.10;99.90
13205;DHT22;6667;52.634;9.226;2023-03-04T09:20:21;6.10;99.90
13205;DHT22;6667;52.634;9.226;2023-03-04T09:22:48;6.10;99.90
13205;DHT22;6667;52.634;9.226;2023-03-04T09:25:15;6.10;99.90
13205;DHT22;6667;52.634;9.226;2023-03-04T09:27:41;6.20;99.90
13205;DHT22;6667;52.634;9.226;2023-03-04T09:30:09;6.20;99.90
13205;DHT22;6667;52.634;9.226;2023-03-04T09:32:36;6.20;99.90
13205;DHT22;6667;52.634;9.226;2023-03-04T09:35:03;6.10;99.90
13205;DHT22;6667;52.634;9.226;2023-03-04T09:37:31;6.10;99.90
13205;DHT22;6667;52.634;9.226;2023-03-04T09:39:58;6.10;99.90
13205;DHT22;6667;52.634;9.226;2023-03-04T09:42:27;6.10;99.90
13205;DHT22;6667;52.634;9.226;2023-03-04T09:44:54;6.10;99.90
13205;DHT22;6667;52.634;9.226;2023-03-04T09:47:23;6.20;99.90
13205;DHT22;6667;52.634;9.226;2023-03-04T09:49:55;6.30;99.90
13205;DHT22;6667;52.634;9.226;2023-03-04T09:52:35;6.40;99.90
13205;DHT22;6667;52.634;9.226;2023-03-04T09:55:09;6.70;99.90
13205;DHT22;6667;52.634;9.226;2023-03-04T09:57:46;6.80;99.90
13205;DHT22;6667;52.634;9.226;2023-03-04T10:00:15;6.80;99.90
13205;DHT22;6667;52.634;9.226;2023-03-04T10:02:50;6.90;99.90
13205;DHT22;6667;52.634;9.226;2023-03-04T10:05:24;7.00;99.90
13205;DHT22;6667;52.634;9.226;2023-03-04T10:07:56;7.20;99.90
13205;DHT22;6667;52.634;9.226;2023-03-04T10:10:26;7.30;99.90
13205;DHT22;6667;52.634;9.226;2023-03-04T10:12:57;7.20;99.90
13205;DHT22;6667;52.634;9.226;2023-03-04T10:15:30;7.00;99.90
13205;DHT22;6667;52.634;9.226;2023-03-04T10:18:05;7.00;99.90
13205;DHT22;6667;52.634;9.226;2023-03-04T10:20:42;7.10;99.90
13205;DHT22;6667;52.634;9.226;2023-03-04T10:23:17;7.00;99.90
13205;DHT22;6667;52.634;9.226;2023-03-04T10:25:45;6.90;99.90
13205;DHT22;6667;52.634;9.226;2023-03-04T10:28:17;6.80;99.90
13205;DHT22;6667;52.634;9.226;2023-03-04T10:30:50;6.70;99.90
13205;DHT22;6667;52.634;9.226;2023-03-04T10:33:20;6.60;99.90
13205;DHT22;6667;52.634;9.226;2023-03-04T10:35:50;6.40;99.90
13205;DHT22;6667;52.634;9.226;2023-03-04T10:38:20;6.50;99.90
13205;DHT22;6667;52.634;9.226;2023-03-04T10:40:47;6.60;99.90
13205;DHT22;6667;52.634;9.226;2023-03-04T10:43:16;7.10;99.90
13205;DHT22;6667;52.634;9.226;2023-03-04T10:45:42;7.70;99.90
13205;DHT22;6667;52.634;9.226;2023-03-04T10:48:18;8.20;99.90
13205;DHT22;6667;52.634;9.226;2023-03-04T10:50:45;8.60;99.90
13205;DHT22;6667;52.634;9.226;2023-03-04T10:53:25;8.30;99.90
13205;DHT22;6667;52.634;9.226;2023-03-04T10:55:53;8.00;99.90
13205;DHT22;6667;52.634;9.226;2023-03-04T10:58:20;8.50;99.90
13205;DHT22;6667;52.634;9.226;2023-03-04T11:00:58;8.30;99.90
13205;DHT22;6667;52.634;9.226;2023-03-04T11:03:31;7.90;99.90
13205;DHT22;6667;52.634;9.226;2023-03-04T11:06:19;7.50;99.90
13205;DHT22;6667;52.634;9.226;2023-03-04T11:08:54;7.30;99.90
13205;DHT22;6667;52.634;9.226;2023-03-04T11:11:23;7.20;99.90
13205;DHT22;6667;52.634;9.226;2023-03-04T11:13:51;7.20;99.90
13205;DHT22;6667;52.634;9.226;2023-03-04T11:16:24;7.40;99.90
13205;DHT22;6667;52.634;9.226;2023-03-04T11:18:52;7.50;99.90
13205;DHT22;6667;52.634;9.226;2023-03-04T11:21:21;7.50;99.90
13205;DHT22;6667;52.634;9.226;2023-03-04T11:23:53;7.40;99.90
13205;DHT22;6667;52.634;9.226;2023-03-04T11:26:27;7.20;99.90
13205;DHT22;6667;52.634;9.226;2023-03-04T11:28:58;7.20;99.90
13205;DHT22;6667;52.634;9.226;2023-03-04T11:31:29;7.20;99.90
13205;DHT22;6667;52.634;9.226;2023-03-04T11:34:00;7.40;99.90
13205;DHT22;6667;52.634;9.226;2023-03-04T11:36:33;7.60;99.90
13205;DHT22;6667;52.634;9.226;2023-03-04T11:39:03;7.70;99.90
13205;DHT22;6667;52.634;9.226;2023-03-04T11:41:32;8.00;99.90
13205;DHT22;6667;52.634;9.226;2023-03-04T11:44:00;8.60;99.90
13205;DHT22;6667;52.634;9.226;2023-03-04T11:46:45;8.80;99.90
13205;DHT22;6667;52.634;9.226;2023-03-04T11:52:19;8.20;99.90
13205;DHT22;6667;52.634;9.226;2023-03-04T11:54:56;7.80;99.90
13205;DHT22;6667;52.634;9.226;2023-03-04T11:57:31;7.90;99.90
13205;DHT22;6667;52.634;9.226;2023-03-04T12:00:12;7.90;99.90
13205;DHT22;6667;52.634;9.226;2023-03-04T12:02:47;8.20;99.90
13205;DHT22;6667;52.634;9.226;2023-03-04T12:05:26;8.60;99.90
13205;DHT22;6667;52.634;9.226;2023-03-04T12:08:15;8.70;99.90
13205;DHT22;6667;52.634;9.226;2023-03-04T12:10:52;8.10;99.90
13205;DHT22;6667;52.634;9.226;2023-03-04T12:13:39;7.60;99.90
13205;DHT22;6667;52.634;9.226;2023-03-04T12:16:19;7.20;99.90
13205;DHT22;6667;52.634;9.226;2023-03-04T12:19:04;7.30;99.90
13205;DHT22;6667;52.634;9.226;2023-03-04T12:24:33;7.70;99.90
13205;DHT22;6667;52.634;9.226;2023-03-04T12:27:14;7.70;99.90
13205;DHT22;6667;52.634;9.226;2023-03-04T12:29:50;8.00;99.90
13205;DHT22;6667;52.634;9.226;2023-03-04T12:32:26;8.40;99.90
13205;DHT22;6667;52.634;9.226;2023-03-04T12:35:16;8.50;99.90
13205;DHT22;6667;52.634;9.226;2023-03-04T12:38:05;8.30;99.90
13205;DHT22;6667;52.634;9.226;2023-03-04T12:40:44;8.00;99.90
13205;DHT22;6667;52.634;9.226;2023-03-04T12:43:26;8.00;99.90
13205;DHT22;6667;52.634;9.226;2023-03-04T12:46:03;8.10;99.90
13205;DHT22;6667;52.634;9.226;2023-03-04T12:48:35;8.20;99.90
13205;DHT22;6667;52.634;9.226;2023-03-04T12:51:16;8.30;99.90
13205;DHT22;6667;52.634;9.226;2023-03-04T12:53:57;8.30;99.90
13205;DHT22;6667;52.634;9.226;2023-03-04T12:56:31;8.10;99.90
13205;DHT22;6667;52.634;9.226;2023-03-04T12:59:03;8.10;99.90
13205;DHT22;6667;52.634;9.226;2023-03-04T13:01:35;8.10;99.90
13205;DHT22;6667;52.634;9.226;2023-03-04T13:04:10;8.20;99.90
13205;DHT22;6667;52.634;9.226;2023-03-04T13:06:44;8.30;99.90
13205;DHT22;6667;52.634;9.226;2023-03-04T13:09:17;8.10;99.90
13205;DHT22;6667;52.634;9.226;2023-03-04T13:11:53;8.00;99.90
13205;DHT22;6667;52.634;9.226;2023-03-04T13:14:32;7.80;99.90
13205;DHT22;6667;52.634;9.226;2023-03-04T13:17:36;7.70;99.90
13205;DHT22;6667;52.634;9.226;2023-03-04T13:19:50;8.00;99.90
13205;DHT22;6667;52.634;9.226;2023-03-04T13:22:41;8.20;99.90
13205;DHT22;6667;52.634;9.226;2023-03-04T13:25:37;8.30;99.90
13205;DHT22;6667;52.634;9.226;2023-03-04T13:28:26;8.30;99.90
13205;DHT22;6667;52.634;9.226;2023-03-04T13:31:12;8.20;99.90
13205;DHT22;6667;52.634;9.226;2023-03-04T13:33:57;8.00;99.90
13205;DHT22;6667;52.634;9.226;2023-03-04T13:36:51;7.90;99.90
13205;DHT22;6667;52.634;9.226;2023-03-04T13:39:33;7.80;99.90
13205;DHT22;6667;52.634;9.226;2023-03-04T13:42:00;7.50;99.90
13205;DHT22;6667;52.634;9.226;2023-03-04T13:44:56;6.80;99.90
13205;DHT22;6667;52.634;9.226;2023-03-04T13:47:39;6.70;99.90
13205;DHT22;6667;52.634;9.226;2023-03-04T13:50:31;6.50;99.90
13205;DHT22;6667;52.634;9.226;2023-03-04T13:53:25;6.60;99.90
13205;DHT22;6667;52.634;9.226;2023-03-04T13:56:22;6.80;99.90
13205;DHT22;6667;52.634;9.226;2023-03-04T13:58:51;6.90;99.90
13205;DHT22;6667;52.634;9.226;2023-03-04T14:01:25;7.10;99.90
13205;DHT22;6667;52.634;9.226;2023-03-04T14:03:53;7.00;99.90
13205;DHT22;6667;52.634;9.226;2023-03-04T14:06:21;7.20;99.90
13205;DHT22;6667;52.634;9.226;2023-03-04T14:08:50;7.10;99.90
13205;DHT22;6667;52.634;9.226;2023-03-04T14:11:24;7.10;99.90
13205;DHT22;6667;52.634;9.226;2023-03-04T14:13:51;7.00;99.90
13205;DHT22;6667;52.634;9.226;2023-03-04T14:16:19;7.00;99.90
13205;DHT22;6667;52.634;9.226;2023-03-04T14:18:56;7.10;99.90
13205;DHT22;6667;52.634;9.226;2023-03-04T14:21:23;7.20;99.90
13205;DHT22;6667;52.634;9.226;2023-03-04T14:24:01;7.20;99.90
13205;DHT22;6667;52.634;9.226;2023-03-04T14:26:28;7.10;99.90
13205;DHT22;6667;52.634;9.226;2023-03-04T14:28:56;7.10;99.90
13205;DHT22;6667;52.634;9.226;2023-03-04T14:31:26;6.90;99.90
13205;DHT22;6667;52.634;9.226;2023-03-04T14:33:55;6.90;99.90
13205;DHT22;6667;52.634;9.226;2023-03-04T14:36:28;6.80;99.90
13205;DHT22;6667;52.634;9.226;2023-03-04T14:38:57;6.30;99.90
13205;DHT22;6667;52.634;9.226;2023-03-04T14:41:28;6.30;99.90
13205;DHT22;6667;52.634;9.226;2023-03-04T14:44:06;6.00;99.90
13205;DHT22;6667;52.634;9.226;2023-03-04T14:46:37;6.00;99.90
13205;DHT22;6667;52.634;9.226;2023-03-04T14:49:05;6.00;99.90
13205;DHT22;6667;52.634;9.226;2023-03-04T14:51:39;6.00;99.90
13205;DHT22;6667;52.634;9.226;2023-03-04T14:54:29;6.10;99.90
13205;DHT22;6667;52.634;9.226;2023-03-04T14:56:58;6.10;99.90
13205;DHT22;6667;52.634;9.226;2023-03-04T14:59:29;6.10;99.90
13205;DHT22;6667;52.634;9.226;2023-03-04T15:02:17;6.10;99.90
13205;DHT22;6667;52.634;9.226;2023-03-04T15:04:44;6.10;99.90
13205;DHT22;6667;52.634;9.226;2023-03-04T15:07:14;6.20;99.90
13205;DHT22;6667;52.634;9.226;2023-03-04T15:09:41;6.20;99.90
13205;DHT22;6667;52.634;9.226;2023-03-04T15:12:22;6.20;99.90
13205;DHT22;6667;52.634;9.226;2023-03-04T15:14:51;6.20;99.90
13205;DHT22;6667;52.634;9.226;2023-03-04T15:17:34;6.20;99.90
13205;DHT22;6667;52.634;9.226;2023-03-04T15:20:19;6.10;99.90
13205;DHT22;6667;52.634;9.226;2023-03-04T15:23:02;6.20;99.90
13205;DHT22;6667;52.634;9.226;2023-03-04T15:25:31;6.10;99.90
13205;DHT22;6667;52.634;9.226;2023-03-04T15:27:59;6.10;99.90
13205;DHT22;6667;52.634;9.226;2023-03-04T15:30:29;6.10;99.90
13205;DHT22;6667;52.634;9.226;2023-03-04T15:32:57;6.00;99.90
13205;DHT22;6667;52.634;9.226;2023-03-04T15:35:26;6.00;99.90
13205;DHT22;6667;52.634;9.226;2023-03-04T15:37:55;5.80;99.90
13205;DHT22;6667;52.634;9.226;2023-03-04T15:40:26;5.80;99.90
13205;DHT22;6667;52.634;9.226;2023-03-04T15:42:55;5.80;99.90
13205;DHT22;6667;52.634;9.226;2023-03-04T15:45:25;5.80;99.90
13205;DHT22;6667;52.634;9.226;2023-03-04T15:47:52;5.70;99.90
13205;DHT22;6667;52.634;9.226;2023-03-04T15:50:20;5.70;99.90
13205;DHT22;6667;52.634;9.226;2023-03-04T15:52:47;5.70;99.90
13205;DHT22;6667;52.634;9.226;2023-03-04T15:55:16;5.50;99.90
13205;DHT22;6667;52.634;9.226;2023-03-04T15:57:45;5.50;99.90
13205;DHT22;6667;52.634;9.226;2023-03-04T16:00:12;5.50;99.90
13205;DHT22;6667;52.634;9.226;2023-03-04T16:02:41;5.60;99.90
13205;DHT22;6667;52.634;9.226;2023-03-04T16:05:08;5.50;99.90
13205;DHT22;6667;52.634;9.226;2023-03-04T16:07:36;5.50;99.90
13205;DHT22;6667;52.634;9.226;2023-03-04T16:10:08;5.60;99.90
13205;DHT22;6667;52.634;9.226;2023-03-04T16:12:37;5.60;99.90
13205;DHT22;6667;52.634;9.226;2023-03-04T16:15:12;5.60;99.90
13205;DHT22;6667;52.634;9.226;2023-03-04T16:17:38;5.60;99.90
13205;DHT22;6667;52.634;9.226;2023-03-04T16:20:11;5.60;99.90
13205;DHT22;6667;52.634;9.226;2023-03-04T16:22:38;5.50;99.90
13205;DHT22;6667;52.634;9.226;2023-03-04T16:25:09;5.60;99.90